Time;durP1;ratioP1;P1;durP2;ratioP2;P2;SDS_P1;SDS_P2;PMS_P1;PMS_P2;Temp;Humidity;BMP_temperature;BMP_pressure;BME280_temperature;BME280_humidity;BME280_pressure;Samples;Min_cycle;Max_cycle;Signal;HPM_P1;HPM_P2
2023/08/19 00:01:15;;;;;;;5.03;3.15;;;27.50;96.70;;;;;;5055260;28;20040;-74
2023/08/19 00:03:43;;;;;;;5.18;3.50;;;27.30;96.70;;;;;;5044995;28;20697;-74
2023/08/19 00:06:30;;;;;;;6.32;3.85;;;27.20;96.70;;;;;;5045317;28;20036;-74
2023/08/19 00:08:58;;;;;;;5.15;3.45;;;27.10;96.70;;;;;;5060416;28;20044;-74
2023/08/19 00:11:26;;;;;;;7.15;3.60;;;27.00;96.70;;;;;;5064013;28;20374;-74
2023/08/19 00:13:54;;;;;;;4.53;3.25;;;27.10;96.70;;;;;;5041646;28;20047;-74
2023/08/19 00:16:24;;;;;;;6.07;3.78;;;27.10;96.70;;;;;;5046436;28;20583;-73
2023/08/19 00:18:52;;;;;;;4.93;3.33;;;27.20;96.70;;;;;;5054386;28;20045;-73
2023/08/19 00:21:21;;;;;;;5.03;3.92;;;27.20;96.70;;;;;;5063666;28;20080;-72
2023/08/19 00:23:50;;;;;;;9.27;3.42;;;27.00;96.70;;;;;;5028472;28;20573;-73
2023/08/19 00:26:17;;;;;;;3.58;3.17;;;26.90;96.70;;;;;;5045429;28;20045;-73
2023/08/19 00:28:45;;;;;;;3.97;3.58;;;26.90;96.70;;;;;;5044175;28;20155;-73
2023/08/19 00:31:14;;;;;;;4.03;3.55;;;26.90;96.70;;;;;;5063175;28;20052;-73
2023/08/19 00:33:43;;;;;;;7.90;3.42;;;26.90;96.70;;;;;;5063374;28;20036;-73
2023/08/19 00:36:11;;;;;;;6.35;3.65;;;26.90;96.70;;;;;;5044480;28;20596;-73
2023/08/19 00:38:39;;;;;;;4.20;3.65;;;26.90;96.70;;;;;;5062965;28;20374;-73
2023/08/19 00:41:07;;;;;;;5.55;3.10;;;26.90;96.70;;;;;;5025183;28;20041;-73
2023/08/19 00:43:36;;;;;;;4.03;3.63;;;26.90;96.70;;;;;;5039923;28;20072;-74
2023/08/19 00:46:06;;;;;;;6.50;3.38;;;26.90;96.70;;;;;;5045733;28;20068;-73
2023/08/19 00:48:35;;;;;;;3.78;3.33;;;26.90;96.70;;;;;;5044563;28;20567;-74
2023/08/19 00:51:05;;;;;;;5.50;3.83;;;26.80;96.70;;;;;;5043730;28;20090;-73
2023/08/19 00:53:34;;;;;;;4.60;3.75;;;26.80;96.70;;;;;;5059582;28;20049;-73
2023/08/19 00:56:03;;;;;;;5.32;3.40;;;26.80;96.70;;;;;;5030127;28;20047;-73
2023/08/19 00:58:31;;;;;;;4.43;3.47;;;26.70;96.70;;;;;;5048864;28;20127;-74
2023/08/19 01:00:59;;;;;;;6.07;4.03;;;26.60;96.70;;;;;;5067058;28;20045;-74
2023/08/19 01:03:27;;;;;;;5.60;3.88;;;26.50;96.70;;;;;;5047350;28;20135;-74
2023/08/19 01:06:07;;;;;;;4.78;3.47;;;26.60;96.70;;;;;;5048528;28;20055;-74
2023/08/19 01:08:43;;;;;;;6.95;3.40;;;26.50;96.70;;;;;;5044799;28;20447;-74
2023/08/19 01:11:17;;;;;;;4.45;3.20;;;26.40;96.70;;;;;;5045164;28;20422;-73
2023/08/19 01:13:58;;;;;;;4.88;3.80;;;26.50;96.70;;;;;;5057912;28;20058;-74
2023/08/19 01:16:30;;;;;;;5.32;3.95;;;26.50;96.70;;;;;;5066295;28;20050;-74
2023/08/19 01:19:00;;;;;;;5.60;3.63;;;26.60;96.70;;;;;;5031966;28;20056;-74
2023/08/19 01:21:29;;;;;;;5.35;3.60;;;26.40;96.70;;;;;;5044661;28;20079;-74
2023/08/19 01:23:59;;;;;;;4.03;3.42;;;26.30;96.70;;;;;;5047796;28;20067;-73
2023/08/19 01:26:29;;;;;;;6.32;3.83;;;26.50;96.70;;;;;;5066768;28;20161;-72
2023/08/19 01:28:57;;;;;;;3.80;3.50;;;26.40;96.70;;;;;;5043921;28;20106;-73
2023/08/19 01:31:25;;;;;;;3.97;3.67;;;26.40;96.70;;;;;;5064287;28;20040;-73
2023/08/19 01:33:53;;;;;;;6.97;3.67;;;26.20;96.70;;;;;;5065683;28;20047;-75
2023/08/19 01:36:26;;;;;;;4.70;3.70;;;26.30;96.70;;;;;;5062175;28;20044;-74
2023/08/19 01:38:59;;;;;;;4.75;4.20;;;26.40;96.70;;;;;;5065435;28;20040;-74
2023/08/19 01:41:29;;;;;;;4.20;3.78;;;26.40;96.70;;;;;;5047496;28;20048;-74
2023/08/19 01:43:59;;;;;;;4.35;3.95;;;26.40;96.70;;;;;;5047554;28;20139;-74
2023/08/19 01:46:27;;;;;;;3.75;3.40;;;26.40;96.70;;;;;;5037307;28;20051;-74
2023/08/19 01:48:55;;;;;;;4.03;3.63;;;26.30;96.70;;;;;;5040550;28;20756;-74
2023/08/19 01:51:23;;;;;;;6.40;3.75;;;26.20;96.70;;;;;;5047869;28;20114;-74
2023/08/19 01:53:51;;;;;;;4.65;3.83;;;26.10;96.70;;;;;;5043669;28;20051;-74
2023/08/19 01:56:19;;;;;;;6.80;3.95;;;26.10;96.70;;;;;;5024198;28;20060;-74
2023/08/19 01:58:49;;;;;;;5.63;3.70;;;26.20;96.70;;;;;;5046428;28;20055;-73
2023/08/19 02:01:17;;;;;;;6.90;4.35;;;26.10;96.70;;;;;;5071683;28;20049;-73
2023/08/19 02:03:45;;;;;;;4.75;3.50;;;26.00;96.70;;;;;;5047679;28;20044;-74
2023/08/19 02:06:13;;;;;;;5.40;3.35;;;26.00;96.70;;;;;;5059337;28;20055;-74
2023/08/19 02:08:41;;;;;;;4.38;3.15;;;25.90;96.70;;;;;;5042968;28;20074;-73
2023/08/19 02:11:08;;;;;;;4.53;3.13;;;25.90;96.70;;;;;;5047075;28;20060;-73
2023/08/19 02:13:36;;;;;;;5.22;3.63;;;25.90;96.70;;;;;;5030304;28;20044;-73
2023/08/19 02:16:05;;;;;;;4.47;3.60;;;26.00;96.70;;;;;;5044196;28;20053;-74
2023/08/19 02:18:33;;;;;;;4.40;3.10;;;26.00;96.70;;;;;;5048010;28;20502;-75
2023/08/19 02:21:01;;;;;;;6.13;4.05;;;26.00;96.70;;;;;;5047112;28;20201;-74
2023/08/19 02:23:28;;;;;;;6.00;3.65;;;26.00;96.70;;;;;;5047328;28;20036;-74
2023/08/19 02:25:56;;;;;;;4.65;3.40;;;26.00;96.70;;;;;;5066296;28;20052;-74
2023/08/19 02:28:26;;;;;;;5.07;3.63;;;26.00;96.70;;;;;;5043285;28;20095;-73
2023/08/19 02:31:01;;;;;;;7.57;3.80;;;26.00;96.70;;;;;;5047812;28;20092;-78
2023/08/19 02:33:30;;;;;;;5.43;3.70;;;26.00;96.70;;;;;;5064866;28;20720;-78
2023/08/19 02:35:58;;;;;;;4.45;3.25;;;25.90;96.70;;;;;;5065120;28;20147;-78
2023/08/19 02:38:26;;;;;;;6.97;3.63;;;25.90;96.70;;;;;;5064809;28;20562;-78
2023/08/19 02:40:53;;;;;;;4.97;3.33;;;26.00;96.70;;;;;;5064409;28;20047;-78
2023/08/19 02:43:21;;;;;;;4.13;3.28;;;26.00;96.70;;;;;;5045539;28;20139;-79
2023/08/19 02:45:49;;;;;;;3.80;3.20;;;25.80;96.70;;;;;;5046672;28;20075;-78
2023/08/19 02:48:17;;;;;;;4.93;3.90;;;25.90;96.70;;;;;;5043580;28;20132;-78
2023/08/19 02:50:46;;;;;;;5.90;3.33;;;25.80;96.70;;;;;;5029828;28;20533;-78
2023/08/19 02:53:14;;;;;;;7.72;3.40;;;25.70;96.70;;;;;;5046013;28;20572;-76
2023/08/19 02:55:42;;;;;;;4.40;3.53;;;25.60;96.70;;;;;;5046155;28;20090;-78
2023/08/19 02:58:13;;;;;;;4.47;3.67;;;25.60;96.70;;;;;;5048698;28;20605;-77
2023/08/19 03:00:41;;;;;;;3.70;3.25;;;25.60;96.70;;;;;;5046017;28;20052;-78
2023/08/19 03:03:10;;;;;;;4.57;3.33;;;25.60;96.70;;;;;;5045616;28;20044;-78
2023/08/19 03:05:39;;;;;;;5.88;3.40;;;25.50;96.70;;;;;;5054785;28;20458;-78
2023/08/19 03:08:10;;;;;;;3.95;3.50;;;25.60;96.70;;;;;;5042403;28;20600;-78
2023/08/19 03:10:39;;;;;;;3.58;3.20;;;25.60;96.70;;;;;;5053123;28;20783;-78
2023/08/19 03:13:08;;;;;;;4.00;3.60;;;25.50;96.70;;;;;;5046264;28;20060;-78
2023/08/19 03:15:38;;;;;;;5.32;3.65;;;25.50;96.70;;;;;;5046124;28;20044;-75
2023/08/19 03:18:06;;;;;;;4.18;3.30;;;25.60;96.70;;;;;;5045099;28;20052;-76
2023/08/19 03:20:34;;;;;;;3.33;3.03;;;25.60;96.70;;;;;;5045016;28;20139;-76
2023/08/19 03:23:02;;;;;;;6.35;3.47;;;25.50;96.70;;;;;;5045512;28;20048;-77
2023/08/19 03:25:32;;;;;;;6.35;3.38;;;25.40;96.70;;;;;;5063566;28;20395;-76
2023/08/19 03:28:00;;;;;;;3.95;3.45;;;25.40;96.70;;;;;;5044986;28;20151;-76
2023/08/19 03:30:28;;;;;;;4.05;3.70;;;25.40;96.70;;;;;;5028595;28;20068;-77
2023/08/19 03:32:56;;;;;;;3.15;2.95;;;25.40;96.70;;;;;;5041758;28;20053;-75
2023/08/19 03:35:25;;;;;;;5.25;3.90;;;25.40;96.70;;;;;;5047537;28;20044;-77
2023/08/19 03:37:53;;;;;;;5.35;3.55;;;25.60;96.70;;;;;;5028677;28;20128;-77
2023/08/19 03:40:21;;;;;;;5.72;3.78;;;25.70;96.70;;;;;;5063951;28;20151;-76
2023/08/19 03:42:52;;;;;;;4.50;3.63;;;25.70;96.70;;;;;;5045639;28;20040;-77
2023/08/19 03:45:20;;;;;;;4.90;3.78;;;25.60;96.70;;;;;;5045680;28;20151;-76
2023/08/19 03:47:48;;;;;;;3.67;3.38;;;25.60;96.70;;;;;;5045108;28;20106;-75
2023/08/19 03:50:16;;;;;;;3.90;3.50;;;25.40;96.70;;;;;;5052691;28;20679;-78
2023/08/19 03:52:44;;;;;;;3.88;3.58;;;25.30;96.70;;;;;;5025965;28;20494;-79
2023/08/19 03:55:12;;;;;;;4.57;4.15;;;25.30;96.70;;;;;;5029210;28;20048;-78
2023/08/19 03:57:40;;;;;;;4.72;3.60;;;25.20;96.70;;;;;;5042321;28;20052;-79
2023/08/19 04:00:11;;;;;;;4.35;3.95;;;25.30;96.70;;;;;;5042204;28;20037;-79
2023/08/19 04:02:44;;;;;;;4.72;3.70;;;25.20;96.70;;;;;;5045423;28;20230;-79
2023/08/19 04:05:12;;;;;;;4.30;3.90;;;25.10;96.70;;;;;;5042293;28;20052;-79
2023/08/19 04:07:40;;;;;;;4.10;3.65;;;25.20;96.70;;;;;;5074128;28;20589;-78
2023/08/19 04:10:09;;;;;;;6.22;4.22;;;25.20;96.70;;;;;;5045598;28;20504;-78
2023/08/19 04:12:38;;;;;;;6.25;3.58;;;25.20;96.70;;;;;;5045020;28;20079;-80
2023/08/19 04:15:08;;;;;;;5.30;3.80;;;25.20;96.70;;;;;;5043394;28;20093;-79
2023/08/19 04:17:38;;;;;;;6.10;4.07;;;25.20;96.70;;;;;;5045048;28;20052;-78
2023/08/19 04:20:08;;;;;;;5.82;4.00;;;25.20;96.70;;;;;;5045319;28;20051;-79
2023/08/19 04:22:37;;;;;;;7.25;3.70;;;25.20;96.70;;;;;;5044737;28;20421;-78
2023/08/19 04:25:05;;;;;;;6.18;3.80;;;25.10;96.70;;;;;;5044801;28;20090;-78
2023/08/19 04:27:33;;;;;;;6.15;4.00;;;25.10;96.70;;;;;;5034696;28;20056;-79
2023/08/19 04:30:03;;;;;;;6.13;4.15;;;25.00;96.70;;;;;;5028614;28;20049;-78
2023/08/19 04:32:32;;;;;;;4.97;4.43;;;24.90;96.70;;;;;;5029195;28;20044;-78
2023/08/19 04:35:03;;;;;;;5.72;4.35;;;24.90;96.70;;;;;;5024917;28;20052;-78
2023/08/19 04:37:31;;;;;;;5.57;4.03;;;24.80;96.70;;;;;;5025218;28;20045;-80
2023/08/19 04:39:59;;;;;;;5.22;3.53;;;24.90;96.70;;;;;;5026734;28;20072;-78
2023/08/19 04:42:35;;;;;;;5.55;3.90;;;24.70;96.70;;;;;;5010799;28;20045;-78
2023/08/19 04:45:05;;;;;;;6.97;4.72;;;24.70;96.70;;;;;;5009392;28;20398;-78
2023/08/19 04:47:35;;;;;;;5.25;4.22;;;24.80;96.70;;;;;;5006215;28;20100;-78
2023/08/19 04:50:08;;;;;;;5.60;3.90;;;24.90;96.70;;;;;;5021820;28;20057;-78
2023/08/19 04:52:37;;;;;;;6.43;4.47;;;24.80;96.70;;;;;;5019536;28;20653;-78
2023/08/19 04:55:09;;;;;;;4.30;3.80;;;24.80;96.70;;;;;;5025927;28;20056;-78
2023/08/19 04:57:37;;;;;;;4.30;3.97;;;24.90;96.70;;;;;;5041971;28;20059;-79
2023/08/19 05:00:08;;;;;;;4.80;4.40;;;24.90;96.70;;;;;;5008877;28;20045;-78
2023/08/19 05:02:36;;;;;;;5.85;3.70;;;24.90;96.70;;;;;;5005999;28;20149;-78
2023/08/19 05:05:07;;;;;;;4.65;4.05;;;25.00;96.70;;;;;;5025303;28;20053;-78
2023/08/19 05:07:36;;;;;;;4.53;4.07;;;25.10;96.70;;;;;;5009442;28;20328;-78
2023/08/19 05:10:05;;;;;;;4.53;4.05;;;25.20;96.70;;;;;;5025974;28;20131;-78
2023/08/19 05:12:33;;;;;;;6.90;4.28;;;25.10;96.70;;;;;;5009532;28;20045;-78
2023/08/19 05:15:02;;;;;;;4.10;3.80;;;25.00;96.70;;;;;;5024558;28;20658;-78
2023/08/19 05:17:30;;;;;;;6.93;3.58;;;24.90;96.70;;;;;;5015896;28;20073;-78
2023/08/19 05:19:58;;;;;;;4.60;3.50;;;25.00;96.70;;;;;;5027052;28;20088;-78
2023/08/19 05:22:28;;;;;;;6.07;4.00;;;25.00;96.70;;;;;;5025667;28;20050;-78
2023/08/19 05:24:56;;;;;;;4.07;3.67;;;25.20;96.70;;;;;;5025502;28;20052;-78
2023/08/19 05:27:24;;;;;;;4.95;3.45;;;25.20;96.70;;;;;;5009107;28;20057;-78
2023/08/19 05:29:52;;;;;;;6.30;3.42;;;25.30;96.70;;;;;;5050040;28;20095;-79
2023/08/19 05:32:20;;;;;;;4.07;3.67;;;25.20;96.70;;;;;;5065657;28;20051;-78
2023/08/19 05:34:47;;;;;;;6.32;3.50;;;25.20;96.70;;;;;;5064535;28;20049;-76
2023/08/19 05:37:15;;;;;;;5.72;3.53;;;25.10;96.70;;;;;;5044415;28;20049;-76
2023/08/19 05:39:45;;;;;;;4.38;3.53;;;25.20;96.70;;;;;;5045233;28;20041;-76
2023/08/19 05:42:13;;;;;;;4.95;3.60;;;25.10;96.70;;;;;;5052486;28;20045;-76
2023/08/19 05:44:41;;;;;;;4.45;3.72;;;25.10;96.70;;;;;;5029200;28;20045;-76
2023/08/19 05:47:09;;;;;;;5.57;4.28;;;25.00;96.70;;;;;;5065608;28;20824;-76
2023/08/19 05:49:37;;;;;;;5.28;4.10;;;25.20;96.70;;;;;;5061702;28;20064;-77
2023/08/19 05:52:05;;;;;;;4.95;3.78;;;25.20;96.70;;;;;;5054632;28;20065;-77
2023/08/19 05:54:33;;;;;;;4.78;3.97;;;25.20;96.70;;;;;;5048644;28;20045;-77
2023/08/19 05:57:03;;;;;;;4.05;3.65;;;25.20;96.70;;;;;;5047048;28;20122;-77
2023/08/19 05:59:30;;;;;;;6.10;3.58;;;25.20;96.70;;;;;;5061373;28;20037;-80
2023/08/19 06:01:59;;;;;;;4.20;3.63;;;25.20;96.70;;;;;;5048319;28;20513;-80
2023/08/19 06:04:28;;;;;;;5.28;3.80;;;25.30;96.70;;;;;;5057130;28;20040;-78
2023/08/19 06:06:56;;;;;;;5.55;3.95;;;25.30;96.70;;;;;;5064143;28;20040;-79
2023/08/19 06:09:39;;;;;;;4.93;4.18;;;25.40;96.70;;;;;;5047394;28;20041;-80
2023/08/19 06:12:08;;;;;;;4.30;3.90;;;25.40;96.70;;;;;;5047712;28;20055;-79
2023/08/19 06:14:36;;;;;;;5.50;4.22;;;25.50;96.70;;;;;;5047011;28;20040;-78
2023/08/19 06:17:04;;;;;;;5.15;4.13;;;25.60;96.70;;;;;;5047390;28;20526;-78
2023/08/19 06:19:32;;;;;;;5.90;3.65;;;25.60;96.70;;;;;;5049606;28;20540;-79
2023/08/19 06:22:00;;;;;;;5.85;4.05;;;25.80;96.70;;;;;;5030158;28;20438;-77
2023/08/19 06:24:28;;;;;;;6.50;4.18;;;25.80;96.70;;;;;;5045355;28;20051;-78
2023/08/19 06:26:58;;;;;;;4.38;3.97;;;25.80;96.70;;;;;;5053516;28;20040;-77
2023/08/19 06:29:27;;;;;;;4.97;3.60;;;25.90;96.70;;;;;;5054499;28;20064;-78
2023/08/19 06:31:55;;;;;;;5.20;4.15;;;25.90;96.70;;;;;;5047131;28;20127;-77
2023/08/19 06:34:23;;;;;;;4.85;4.20;;;26.10;96.70;;;;;;5051336;28;20040;-77
2023/08/19 06:36:54;;;;;;;4.22;3.88;;;26.10;96.70;;;;;;5045350;28;20044;-76
2023/08/19 06:39:28;;;;;;;4.70;3.80;;;26.20;96.70;;;;;;5045782;28;20059;-76
2023/08/19 06:42:01;;;;;;;7.13;4.30;;;26.20;96.70;;;;;;5046193;28;20417;-76
2023/08/19 06:44:36;;;;;;;5.40;4.10;;;26.30;96.70;;;;;;5043571;28;20067;-76
2023/08/19 06:47:07;;;;;;;11.85;9.82;;;26.40;96.70;;;;;;5044960;28;20052;-76
2023/08/19 06:49:36;;;;;;;6.85;6.15;;;26.50;96.70;;;;;;5027852;28;20056;-76
2023/08/19 06:52:04;;;;;;;6.55;4.70;;;26.50;96.70;;;;;;5045598;28;20051;-76
2023/08/19 06:54:33;;;;;;;6.68;4.30;;;26.60;96.70;;;;;;5048956;28;20048;-78
2023/08/19 06:57:07;;;;;;;6.78;4.32;;;26.60;96.70;;;;;;5032663;28;20556;-77
2023/08/19 06:59:38;;;;;;;5.20;4.00;;;26.60;96.70;;;;;;5044840;28;20415;-77
2023/08/19 07:02:07;;;;;;;6.03;4.20;;;26.70;96.70;;;;;;5044414;28;20049;-75
2023/08/19 07:04:36;;;;;;;5.05;4.20;;;26.80;96.70;;;;;;5028819;28;20047;-76
2023/08/19 07:07:08;;;;;;;6.75;4.30;;;26.80;96.70;;;;;;5060426;28;20127;-76
2023/08/19 07:09:37;;;;;;;8.35;3.75;;;26.90;96.70;;;;;;5043996;28;20139;-75
2023/08/19 07:12:06;;;;;;;4.32;3.85;;;26.90;96.70;;;;;;5043890;28;20044;-76
2023/08/19 07:14:38;;;;;;;5.45;4.18;;;27.10;96.70;;;;;;5044822;28;20040;-75
2023/08/19 07:17:07;;;;;;;7.00;4.55;;;27.10;96.70;;;;;;5062925;28;20036;-76
2023/08/19 07:19:47;;;;;;;5.13;4.32;;;27.20;96.70;;;;;;5042269;28;20132;-76
2023/08/19 07:22:17;;;;;;;6.18;4.20;;;27.30;96.70;;;;;;5059416;28;20079;-77
2023/08/19 07:24:47;;;;;;;4.30;3.90;;;27.40;96.70;;;;;;5052944;28;20041;-77
2023/08/19 07:27:16;;;;;;;7.38;4.32;;;27.50;96.70;;;;;;5046061;28;20047;-76
2023/08/19 07:29:51;;;;;;;6.28;4.35;;;27.60;96.70;;;;;;5050875;28;20060;-78
2023/08/19 07:32:22;;;;;;;31.85;28.60;;;27.60;96.70;;;;;;5044747;28;20059;-78
2023/08/19 07:34:50;;;;;;;7.35;6.65;;;27.70;96.70;;;;;;5044799;28;20049;-78
2023/08/19 07:37:18;;;;;;;10.18;9.18;;;27.60;96.70;;;;;;5061556;28;20407;-77
2023/08/19 07:39:46;;;;;;;7.55;6.78;;;27.70;96.70;;;;;;5045576;28;20066;-78
2023/08/19 07:42:14;;;;;;;9.35;7.45;;;27.80;96.70;;;;;;5046720;28;20127;-79
2023/08/19 07:44:42;;;;;;;5.72;5.25;;;27.80;96.70;;;;;;5042445;28;20037;-79
2023/08/19 07:47:12;;;;;;;6.20;5.60;;;27.90;96.70;;;;;;5045250;28;20045;-78
2023/08/19 07:49:40;;;;;;;5.03;4.50;;;28.00;96.70;;;;;;5054989;28;20052;-80
2023/08/19 07:52:08;;;;;;;7.90;4.80;;;28.00;96.70;;;;;;5059680;28;20119;-79
2023/08/19 07:54:36;;;;;;;6.80;4.95;;;28.10;96.70;;;;;;5045262;28;20044;-80
2023/08/19 07:57:04;;;;;;;10.05;6.13;;;28.20;96.70;;;;;;5045516;28;20728;-78
2023/08/19 07:59:34;;;;;;;10.38;8.23;;;28.20;96.70;;;;;;5044577;28;20167;-80
2023/08/19 08:02:02;;;;;;;7.03;6.15;;;28.30;96.70;;;;;;5059891;28;20436;-80
2023/08/19 08:04:32;;;;;;;10.10;5.90;;;28.40;96.70;;;;;;5063931;28;20041;-79
2023/08/19 08:07:00;;;;;;;6.22;5.15;;;28.40;96.70;;;;;;5067332;28;20048;-80
2023/08/19 08:09:28;;;;;;;7.53;6.15;;;28.50;96.70;;;;;;5067189;28;20040;-80
2023/08/19 08:11:57;;;;;;;7.28;5.38;;;28.70;96.70;;;;;;5048007;28;20041;-80
2023/08/19 08:14:25;;;;;;;8.90;5.65;;;28.80;96.70;;;;;;5048995;28;20051;-79
2023/08/19 08:16:56;;;;;;;6.90;5.22;;;28.80;96.70;;;;;;5032540;28;20072;-79
2023/08/19 08:19:25;;;;;;;6.60;5.40;;;28.90;96.70;;;;;;5048625;28;20151;-78
2023/08/19 08:21:55;;;;;;;6.10;5.50;;;29.00;96.70;;;;;;5048157;28;20036;-79
2023/08/19 08:24:23;;;;;;;7.45;5.68;;;29.00;96.70;;;;;;5029046;28;20144;-79
2023/08/19 08:26:51;;;;;;;6.13;5.53;;;29.10;96.70;;;;;;5041369;28;20122;-79
2023/08/19 08:29:19;;;;;;;9.02;6.10;;;29.10;96.70;;;;;;5046219;28;20095;-79
2023/08/19 08:31:50;;;;;;;5.50;5.00;;;29.30;96.70;;;;;;5054212;28;20041;-78
2023/08/19 08:34:24;;;;;;;5.57;5.07;;;29.30;96.70;;;;;;5068918;28;20660;-79
2023/08/19 08:36:56;;;;;;;7.03;5.35;;;29.40;96.70;;;;;;5068076;28;20111;-77
2023/08/19 08:39:25;;;;;;;5.45;4.93;;;29.50;96.70;;;;;;5041167;28;20060;-78
2023/08/19 08:41:53;;;;;;;10.68;6.15;;;29.60;96.70;;;;;;5066154;28;20059;-79
2023/08/19 08:44:26;;;;;;;17.17;12.45;;;29.60;96.70;;;;;;5048507;28;20563;-78
2023/08/19 08:46:55;;;;;;;6.38;5.20;;;29.60;96.70;;;;;;5058101;28;20069;-78
2023/08/19 08:49:27;;;;;;;6.63;5.28;;;29.60;96.70;;;;;;5056292;28;20044;-78
2023/08/19 08:51:57;;;;;;;7.13;5.38;;;29.70;96.70;;;;;;5063993;28;20095;-79
2023/08/19 08:54:28;;;;;;;6.88;5.55;;;29.90;96.70;;;;;;5044923;28;20044;-78
2023/08/19 08:56:56;;;;;;;7.40;5.88;;;29.90;96.70;;;;;;5057516;28;20044;-80
2023/08/19 08:59:25;;;;;;;10.50;5.45;;;30.00;96.70;;;;;;5046279;28;20041;-78
2023/08/19 09:01:54;;;;;;;7.40;5.63;;;30.00;96.70;;;;;;5047574;28;20055;-80
2023/08/19 09:04:26;;;;;;;7.97;5.72;;;30.10;96.70;;;;;;5060522;28;20136;-78
2023/08/19 09:07:04;;;;;;;7.53;6.03;;;30.20;96.70;;;;;;5032312;28;20045;-79
2023/08/19 09:09:36;;;;;;;7.35;5.88;;;30.40;96.70;;;;;;5045029;28;20067;-79
2023/08/19 09:12:11;;;;;;;6.70;5.82;;;30.60;96.70;;;;;;5064829;28;20040;-81
2023/08/19 09:14:42;;;;;;;18.42;15.88;;;30.60;96.70;;;;;;5048059;28;20074;-79
2023/08/19 09:17:12;;;;;;;10.63;7.70;;;30.70;96.70;;;;;;5043550;28;20045;-80
2023/08/19 09:20:12;;;;;;;9.40;6.28;;;30.70;96.70;;;;;;5055873;28;20095;-79
2023/08/19 09:22:43;;;;;;;6.15;5.55;;;30.80;96.70;;;;;;5049961;28;20140;-81
2023/08/19 09:25:15;;;;;;;8.07;6.28;;;30.90;96.70;;;;;;5047703;28;20139;-79
2023/08/19 09:27:44;;;;;;;6.50;5.97;;;31.00;96.70;;;;;;5048563;28;20049;-83
2023/08/19 09:30:17;;;;;;;6.75;5.80;;;31.00;96.70;;;;;;5037655;28;20103;-89
2023/08/19 09:32:45;;;;;;;6.97;6.25;;;31.20;96.70;;;;;;5039696;28;20057;-83
2023/08/19 09:35:14;;;;;;;7.03;6.32;;;31.20;96.70;;;;;;5033037;28;20041;-83
2023/08/19 09:37:45;;;;;;;8.88;5.75;;;31.30;96.70;;;;;;5027664;28;20057;-83
2023/08/19 09:40:21;;;;;;;6.93;6.22;;;31.40;96.70;;;;;;5037635;28;20120;-85
2023/08/19 09:42:49;;;;;;;9.60;5.90;;;31.50;96.70;;;;;;5031088;28;20045;-84
2023/08/19 09:45:19;;;;;;;6.65;6.05;;;31.70;96.70;;;;;;5035125;28;20049;-84
2023/08/19 09:47:49;;;;;;;10.63;6.28;;;31.70;96.70;;;;;;5028209;28;20053;-82
2023/08/19 09:50:18;;;;;;;7.22;5.78;;;31.50;96.70;;;;;;5013680;28;20605;-83
2023/08/19 09:52:58;;;;;;;9.35;6.50;;;31.60;96.70;;;;;;5026702;28;20049;-81
2023/08/19 09:55:28;;;;;;;8.27;6.20;;;31.60;96.70;;;;;;5030483;28;20048;-81
2023/08/19 09:57:56;;;;;;;8.73;6.03;;;31.70;96.70;;;;;;5036736;28;20041;-80
2023/08/19 10:00:25;;;;;;;6.57;5.78;;;31.90;96.70;;;;;;5030836;28;20046;-81
2023/08/19 10:02:53;;;;;;;10.45;6.07;;;32.00;96.70;;;;;;5035226;28;20053;-82
2023/08/19 10:05:23;;;;;;;7.25;5.60;;;32.10;96.70;;;;;;5027689;28;20045;-83
2023/08/19 10:07:57;;;;;;;7.05;6.35;;;32.30;96.70;;;;;;5018428;28;20053;-83
2023/08/19 10:10:30;;;;;;;7.32;6.18;;;32.20;96.70;;;;;;5036102;28;20046;-84
2023/08/19 10:13:00;;;;;;;12.05;6.22;;;32.20;96.70;;;;;;5036867;28;20049;-79
2023/08/19 10:15:32;;;;;;;6.72;6.10;;;32.40;96.70;;;;;;5035017;28;20069;-80
2023/08/19 10:18:08;;;;;;;9.57;6.53;;;32.60;96.70;;;;;;5023314;28;20561;-81
2023/08/19 10:20:38;;;;;;;7.05;6.43;;;32.90;96.70;;;;;;5025842;28;20068;-80
2023/08/19 10:23:08;;;;;;;6.63;5.90;;;32.80;96.70;;;;;;5023867;28;20053;-81
2023/08/19 10:25:40;;;;;;;6.20;5.60;;;32.90;96.70;;;;;;5026357;28;20111;-80
2023/08/19 10:28:11;;;;;;;9.30;5.53;;;33.10;96.70;;;;;;5016332;28;20053;-80
2023/08/19 10:30:40;;;;;;;7.70;5.95;;;33.20;96.70;;;;;;5060568;28;20049;-79
2023/08/19 10:33:27;;;;;;;6.07;5.40;;;33.40;96.70;;;;;;5061559;28;20794;-80
2023/08/19 10:36:00;;;;;;;6.35;5.75;;;33.50;96.70;;;;;;5055794;28;20131;-81
2023/08/19 10:38:46;;;;;;;7.43;5.95;;;33.70;96.70;;;;;;5050560;28;20052;-80
2023/08/19 10:41:24;;;;;;;7.85;6.32;;;33.70;96.70;;;;;;5045171;28;20540;-80
2023/08/19 10:43:57;;;;;;;7.53;6.30;;;33.70;96.70;;;;;;5030018;28;20044;-81
2023/08/19 10:46:33;;;;;;;7.47;5.95;;;33.60;96.70;;;;;;5056988;28;20080;-80
2023/08/19 10:49:03;;;;;;;5.88;5.28;;;33.60;96.70;;;;;;5043367;28;20072;-81
2023/08/19 10:51:51;;;;;;;6.28;5.68;;;33.80;96.70;;;;;;5027678;28;20041;-81
2023/08/19 10:54:31;;;;;;;6.82;5.40;;;33.70;96.70;;;;;;5040042;28;20052;-83
2023/08/19 10:57:12;;;;;;;10.15;4.97;;;33.80;96.70;;;;;;5047919;28;20056;-81
2023/08/19 10:59:42;;;;;;;7.38;5.45;;;34.10;96.70;;;;;;5056381;28;20406;-81
2023/08/19 11:02:11;;;;;;;9.02;5.63;;;34.10;96.70;;;;;;5052497;28;20109;-81
2023/08/19 11:04:40;;;;;;;6.88;5.60;;;34.20;96.70;;;;;;5046334;28;20052;-82
2023/08/19 11:07:41;;;;;;;7.43;5.95;;;34.40;96.70;;;;;;5052717;28;20110;-80
2023/08/19 11:10:18;;;;;;;6.78;5.75;;;34.60;96.70;;;;;;5036719;28;20056;-81
2023/08/19 11:12:49;;;;;;;6.32;5.25;;;34.70;96.70;;;;;;5059802;28;20140;-82
2023/08/19 11:15:24;;;;;;;8.02;5.53;;;34.70;96.70;;;;;;5042988;28;20140;-81
2023/08/19 11:17:52;;;;;;;7.97;5.27;;;34.90;96.70;;;;;;5042394;28;20078;-78
2023/08/19 11:20:27;;;;;;;8.48;5.20;;;34.90;96.70;;;;;;5039572;28;20041;-78
2023/08/19 11:23:12;;;;;;;7.03;5.93;;;34.90;96.70;;;;;;5040505;28;20391;-81
2023/08/19 11:25:40;;;;;;;5.95;5.00;;;35.00;96.70;;;;;;5045229;28;20575;-82
2023/08/19 11:28:10;;;;;;;8.18;4.93;;;35.30;96.70;;;;;;5063776;28;20545;-82
2023/08/19 11:30:38;;;;;;;7.00;4.70;;;35.50;96.70;;;;;;5043231;28;20510;-79
2023/08/19 11:33:08;;;;;;;7.13;5.43;;;35.50;96.70;;;;;;5048840;28;20706;-78
2023/08/19 11:35:43;;;;;;;6.88;6.28;;;35.40;96.70;;;;;;5046550;28;20052;-80
2023/08/19 11:38:14;;;;;;;6.22;4.90;;;35.40;96.70;;;;;;5045816;28;20552;-80
2023/08/19 11:40:42;;;;;;;8.63;6.07;;;35.60;96.70;;;;;;5045189;28;20093;-81
2023/08/19 11:43:13;;;;;;;7.40;5.47;;;35.70;96.70;;;;;;5044704;28;20044;-80
2023/08/19 11:45:42;;;;;;;8.07;5.28;;;35.80;96.70;;;;;;5047405;28;20052;-83
2023/08/19 11:48:16;;;;;;;8.07;5.10;;;36.00;96.70;;;;;;5047976;28;21028;-83
2023/08/19 11:50:46;;;;;;;8.20;5.07;;;36.10;96.70;;;;;;5029712;28;20110;-82
2023/08/19 11:53:23;;;;;;;5.35;4.85;;;36.10;96.70;;;;;;5063405;28;20041;-82
2023/08/19 11:55:56;;;;;;;6.63;5.00;;;36.20;96.70;;;;;;5039057;28;20053;-81
2023/08/19 11:58:36;;;;;;;6.90;4.68;;;36.20;96.70;;;;;;5027910;28;20510;-84
2023/08/19 12:01:05;;;;;;;7.80;5.35;;;36.20;96.70;;;;;;5063844;28;20048;-82
2023/08/19 12:03:34;;;;;;;5.47;4.85;;;36.20;96.70;;;;;;5043506;28;20055;-82
2023/08/19 12:06:02;;;;;;;6.93;5.05;;;36.30;96.70;;;;;;5046886;28;20074;-82
2023/08/19 12:08:31;;;;;;;8.52;5.13;;;36.30;96.70;;;;;;5027839;28;20095;-79
2023/08/19 12:11:00;;;;;;;6.72;4.93;;;36.40;96.70;;;;;;5022461;28;20045;-78
2023/08/19 12:13:29;;;;;;;6.50;4.60;;;36.50;96.70;;;;;;5044139;28;20488;-80
2023/08/19 12:16:01;;;;;;;7.13;5.03;;;36.60;96.70;;;;;;5057589;28;20049;-79
2023/08/19 12:18:32;;;;;;;8.82;5.43;;;36.40;96.70;;;;;;5061805;28;20041;-80
2023/08/19 12:21:01;;;;;;;8.25;4.78;;;36.50;96.70;;;;;;5071018;28;20454;-78
2023/08/19 12:23:30;;;;;;;7.47;4.75;;;36.60;96.70;;;;;;5062615;28;20071;-78
2023/08/19 12:25:59;;;;;;;5.18;4.45;;;36.80;96.70;;;;;;5053938;28;20095;-77
2023/08/19 12:28:29;;;;;;;7.32;6.55;;;36.90;96.70;;;;;;5044109;28;20040;-78
2023/08/19 12:30:57;;;;;;;8.15;5.18;;;37.00;96.70;;;;;;5044014;28;20072;-78
2023/08/19 12:33:25;;;;;;;8.02;4.63;;;37.10;96.70;;;;;;5044895;28;20041;-78
2023/08/19 12:35:54;;;;;;;7.78;4.88;;;37.10;96.70;;;;;;5044903;28;20095;-79
2023/08/19 12:38:43;;;;;;;5.30;4.45;;;37.20;96.70;;;;;;5044851;28;20040;-79
2023/08/19 12:41:11;;;;;;;5.00;4.50;;;37.50;96.70;;;;;;5049952;28;20080;-78
2023/08/19 12:43:41;;;;;;;7.47;4.70;;;37.50;96.70;;;;;;5044701;28;20052;-79
2023/08/19 12:46:09;;;;;;;9.68;4.50;;;37.50;96.70;;;;;;5046265;28;20136;-78
2023/08/19 12:48:39;;;;;;;7.45;4.43;;;37.70;96.70;;;;;;5044527;28;20098;-75
2023/08/19 12:51:07;;;;;;;7.30;4.57;;;37.80;96.70;;;;;;5063415;28;20474;-74
2023/08/19 12:53:35;;;;;;;6.43;4.63;;;37.80;96.70;;;;;;5066361;28;20123;-76
2023/08/19 12:56:03;;;;;;;5.47;4.88;;;37.70;96.70;;;;;;5044473;28;20041;-77
2023/08/19 12:58:31;;;;;;;4.80;4.32;;;37.80;96.70;;;;;;5064192;28;20061;-75
2023/08/19 13:01:01;;;;;;;5.03;4.25;;;37.90;96.70;;;;;;5031283;28;20405;-74